Airfield :
LOGIN :

Register | Disclaimer

   EN    FR    IT 

 










Legend :    VFR   Marginal VFR   IFR   Intensive IFR   Very Intensive IFR
Visi :
Ceiling :
>= 8 km
>= 3000ft
5 to 8 km
1000 to 3000 ft
1500m to 5 km
500 to 1000 ft
800 to 1500m
200 to 500 ft
< 800m
< 200 ft
Symbols :   Thunderstorms  Fog  Heavy snow  Heavy precipitations  Wind > 20 kt
SIGMETs :     Misc.  Thunderstorms  Icing  Turbulence  Mountain Waves  Volcanic Ashes






- Airport Elevation : 433 ft
- IATA code : CCF


LFMK - Carcassonne

CURRENT METAR :
  • 091530Z AUTO 30021G31KT 6000 RA FEW018/// BKN029/// BKN045/// ///CB 08/06 Q1022 BECMG SCT025

EXPIRED METARs :
  • 091500Z AUTO 28020G31KT 240V310 9999 -RA FEW026/// SCT042/// BKN048/// ///CB 11/07 Q1021 BECMG SHRA SCT025
  • 091430Z AUTO 28017KT 240V310 9999 BKN043/// BKN052/// OVC092/// ///TCU 11/07 Q1021 TEMPO 30025G38KT BECMG SHRA SCT025
  • 091400Z AUTO 29016G26KT 9999 FEW020/// BKN092/// ///CB 11/08 Q1021 TEMPO 30025G38KT BECMG SHRA SCT025
  • 091330Z AUTO 28014KT 9999 -RA FEW017 BKN024 BKN030 10/09 Q1021 TEMPO 30025G38KT BECMG SHRA
  • 091300Z AUTO 27019KT 9999 -RA BKN030/// BKN038/// OVC044/// ///CB 11/07 Q1021 TEMPO 30025G38KT BECMG SHRA SCT025

TAF TAF LFMK
Valid from the 09 at 15:00 until the 10 at 15:00 UTC


091400Z 0915/1015 28015G30KT 9999 SHRA BKN015 BKN030
TEMPO 0915/1003 30025G38KT
BECMG 0916/0918 SCT025
BECMG 1007/1009 28015KT



MET'MAP, your aeronautical weather chart ! - Copyright ORBIFLY December 2007 - Disclaimer

ORBIFLY MET'MAP TEAM :

Programming & Development : Alexandra Zaïnal
Concept & original design : Baudouin d'Aumeries
Assistance for programming : Marc-Olivier Méhu
Technical & hardware support : Manuel Goepfert

Contact : metmap@orbifly.com




SOURCES & CREDITS :

   NOAA